createdAt,value
2018-07-28T00:02:12.934Z,16.70
2018-07-28T00:04:41.381Z,16.70
2018-07-28T00:07:10.183Z,16.70
2018-07-28T00:09:38.830Z,16.70
2018-07-28T00:12:07.285Z,16.60
2018-07-28T00:14:35.748Z,16.50
2018-07-28T00:17:04.383Z,16.50
2018-07-28T00:19:32.943Z,16.50
2018-07-28T00:22:01.406Z,16.40
2018-07-28T00:24:30.087Z,16.40
2018-07-28T00:26:58.623Z,16.30
2018-07-28T00:29:27.150Z,16.20
2018-07-28T00:31:55.646Z,16.20
2018-07-28T00:34:24.062Z,16.20
2018-07-28T00:36:52.582Z,16.20
2018-07-28T00:39:21.750Z,16.10
2018-07-28T00:41:50.426Z,16.00
2018-07-28T00:44:18.977Z,16.00
2018-07-28T00:46:47.498Z,16.00
2018-07-28T00:49:16.036Z,16.00
2018-07-28T00:51:44.518Z,16.00
2018-07-28T00:54:12.979Z,15.80
2018-07-28T00:56:41.505Z,15.80
2018-07-28T00:59:10.203Z,15.70
2018-07-28T01:01:38.684Z,15.70
2018-07-28T01:04:07.123Z,15.70
2018-07-28T01:06:35.575Z,15.80
2018-07-28T01:09:06.546Z,15.80
2018-07-28T01:11:35.076Z,15.80
2018-07-28T01:14:03.708Z,15.70
2018-07-28T01:16:32.107Z,15.70
2018-07-28T01:19:00.538Z,15.70
2018-07-28T01:21:29.036Z,15.60
2018-07-28T01:23:57.534Z,15.60
2018-07-28T01:26:26.090Z,15.50
2018-07-28T01:29:00.043Z,15.40
2018-07-28T01:31:28.698Z,15.40
2018-07-28T01:33:57.186Z,15.40
2018-07-28T01:36:28.575Z,15.30
2018-07-28T01:38:57.102Z,15.30
2018-07-28T01:41:25.506Z,15.30
2018-07-28T01:43:53.990Z,15.30
2018-07-28T01:46:22.458Z,15.20
2018-07-28T01:48:50.995Z,15.20
2018-07-28T01:51:19.486Z,15.10
2018-07-28T01:53:47.959Z,15.10
2018-07-28T01:56:16.487Z,15.10
2018-07-28T01:58:45.024Z,15.00
2018-07-28T02:01:13.554Z,14.90
2018-07-28T02:03:42.039Z,14.90
2018-07-28T02:06:10.656Z,14.90
2018-07-28T02:08:39.168Z,14.80
2018-07-28T02:11:07.720Z,14.80
2018-07-28T02:13:36.210Z,14.80
2018-07-28T02:16:04.666Z,14.80
2018-07-28T02:18:33.164Z,14.80
2018-07-28T02:21:01.730Z,14.70
2018-07-28T02:23:30.338Z,14.70
2018-07-28T02:25:58.830Z,14.60
2018-07-28T02:28:27.307Z,14.60
2018-07-28T02:30:55.777Z,14.50
2018-07-28T02:33:24.421Z,14.50
2018-07-28T02:35:53.011Z,14.50
2018-07-28T02:38:21.474Z,14.40
2018-07-28T02:40:49.928Z,14.40
2018-07-28T02:43:18.713Z,14.40
2018-07-28T02:45:47.296Z,14.40
2018-07-28T02:48:15.723Z,14.30
2018-07-28T02:50:44.216Z,14.30
2018-07-28T02:53:12.623Z,14.30
2018-07-28T02:55:41.190Z,14.30
2018-07-28T02:58:09.688Z,14.30
2018-07-28T03:00:38.098Z,14.20
2018-07-28T03:03:06.738Z,14.20
2018-07-28T03:05:35.317Z,14.20
2018-07-28T03:08:03.950Z,14.20
2018-07-28T03:10:32.526Z,14.10
2018-07-28T03:13:00.930Z,14.10
2018-07-28T03:15:31.178Z,14.10
2018-07-28T03:18:01.022Z,14.00
2018-07-28T03:20:29.778Z,14.00
2018-07-28T03:22:58.255Z,13.90
2018-07-28T03:25:26.650Z,13.90
2018-07-28T03:27:55.234Z,13.90
2018-07-28T03:30:23.659Z,13.90
2018-07-28T03:32:52.291Z,14.00
2018-07-28T03:35:20.827Z,14.00
2018-07-28T03:37:49.335Z,14.00
2018-07-28T03:40:17.912Z,14.10
2018-07-28T03:42:46.318Z,14.00
2018-07-28T03:45:14.782Z,14.00
2018-07-28T03:47:43.322Z,14.00
2018-07-28T03:50:12.151Z,14.00
2018-07-28T03:52:40.689Z,14.00
2018-07-28T03:55:10.060Z,14.00
2018-07-28T03:57:38.730Z,14.00
2018-07-28T04:00:09.578Z,14.10
2018-07-28T04:02:38.354Z,14.10
2018-07-28T04:05:08.554Z,14.20
2018-07-28T04:07:37.268Z,14.20
2018-07-28T04:10:06.141Z,14.30
2018-07-28T04:12:34.547Z,14.40
2018-07-28T04:15:03.099Z,14.40
2018-07-28T04:17:31.511Z,14.50
2018-07-28T04:20:00.865Z,14.50
2018-07-28T04:22:29.363Z,14.50
2018-07-28T04:24:57.835Z,14.60
2018-07-28T04:27:26.263Z,14.70
2018-07-28T04:29:54.746Z,14.80
2018-07-28T04:32:23.387Z,14.80
2018-07-28T04:34:51.832Z,14.80
2018-07-28T04:37:20.330Z,14.90
2018-07-28T04:39:48.746Z,14.90
2018-07-28T04:42:17.172Z,15.00
2018-07-28T04:44:45.604Z,15.10
2018-07-28T04:47:14.035Z,15.10
2018-07-28T04:49:42.497Z,15.10
2018-07-28T04:52:10.946Z,15.10
2018-07-28T04:54:39.458Z,15.20
2018-07-28T04:57:08.014Z,15.50
2018-07-28T04:59:36.486Z,15.40
2018-07-28T05:02:04.955Z,15.40
2018-07-28T05:04:33.372Z,15.40
2018-07-28T05:07:01.815Z,15.40
2018-07-28T05:09:30.245Z,15.30
2018-07-28T05:11:58.719Z,15.30
2018-07-28T05:14:27.254Z,15.30
2018-07-28T05:16:55.795Z,15.40
2018-07-28T05:19:24.374Z,15.40
2018-07-28T05:21:52.798Z,15.50
2018-07-28T05:24:21.226Z,15.60
2018-07-28T05:26:49.626Z,15.80
2018-07-28T05:29:18.158Z,16.10
2018-07-28T05:31:46.724Z,16.30
2018-07-28T05:34:15.287Z,16.50
2018-07-28T05:36:43.835Z,16.80
2018-07-28T05:39:13.166Z,17.00
2018-07-28T05:41:41.746Z,17.30
2018-07-28T05:44:10.198Z,17.50
2018-07-28T05:46:38.708Z,17.80
2018-07-28T05:49:07.159Z,18.00
2018-07-28T05:51:35.598Z,18.30
2018-07-28T05:56:32.494Z,18.80
2018-07-28T05:59:00.994Z,19.10
2018-07-28T06:01:29.482Z,19.40
2018-07-28T06:03:57.943Z,19.50
2018-07-28T06:06:26.390Z,19.70
2018-07-28T06:08:54.826Z,19.80
2018-07-28T06:11:23.387Z,19.90
2018-07-28T06:13:51.873Z,20.10
2018-07-28T06:16:20.438Z,20.20
2018-07-28T06:18:48.903Z,20.30
2018-07-28T06:21:17.518Z,20.40
2018-07-28T06:23:46.030Z,20.40
2018-07-28T06:26:14.444Z,20.40
2018-07-28T06:28:42.838Z,20.50
2018-07-28T06:31:11.282Z,20.50
2018-07-28T06:33:41.426Z,20.50
2018-07-28T06:36:09.861Z,20.50
2018-07-28T06:38:38.311Z,20.40
2018-07-28T06:41:06.952Z,20.40
2018-07-28T06:43:35.471Z,20.50
2018-07-28T06:46:04.076Z,20.30
2018-07-28T06:48:32.626Z,20.20
2018-07-28T06:51:01.187Z,20.20
2018-07-28T06:53:29.759Z,20.10
2018-07-28T06:55:58.187Z,20.10
2018-07-28T06:58:26.668Z,20.30
2018-07-28T07:00:55.434Z,20.30
2018-07-28T07:03:24.020Z,20.10
2018-07-28T07:05:52.594Z,20.20
2018-07-28T07:08:21.126Z,20.10
2018-07-28T07:13:17.705Z,20.30
2018-07-28T07:15:46.235Z,20.40
2018-07-28T07:18:14.671Z,20.40
2018-07-28T07:20:44.112Z,20.50
2018-07-28T07:23:12.675Z,20.70
2018-07-28T07:25:41.303Z,20.70
2018-07-28T07:28:09.778Z,20.70
2018-07-28T07:33:06.514Z,20.70
2018-07-28T07:35:35.083Z,20.70
2018-07-28T07:38:04.084Z,20.80
2018-07-28T07:40:33.275Z,20.80
2018-07-28T07:43:01.993Z,20.80
2018-07-28T07:45:30.770Z,20.80
2018-07-28T07:47:59.463Z,20.80
2018-07-28T07:50:28.142Z,20.80
2018-07-28T07:52:56.677Z,20.90
2018-07-28T07:55:25.480Z,21.00
2018-07-28T07:57:54.682Z,21.10
2018-07-28T08:00:23.475Z,21.30
2018-07-28T08:02:52.149Z,21.40
2018-07-28T08:05:20.807Z,21.60
2018-07-28T08:07:49.635Z,21.80
2018-07-28T08:10:18.211Z,21.90
2018-07-28T08:12:46.834Z,22.00
2018-07-28T08:15:16.556Z,22.10
2018-07-28T08:17:45.907Z,22.20
2018-07-28T08:20:15.155Z,22.20
2018-07-28T08:22:44.666Z,22.20
2018-07-28T08:25:13.338Z,22.30
2018-07-28T08:27:41.825Z,22.50
2018-07-28T08:30:10.406Z,22.60
2018-07-28T08:32:39.111Z,22.60
2018-07-28T08:35:08.425Z,22.70
2018-07-28T08:37:37.335Z,22.70
2018-07-28T08:42:34.549Z,22.90
2018-07-28T08:45:03.080Z,23.20
2018-07-28T08:47:31.851Z,23.20
2018-07-28T08:50:00.420Z,23.50
2018-07-28T08:52:29.115Z,23.60
2018-07-28T08:54:57.691Z,23.90
2018-07-28T08:57:26.227Z,24.30
2018-07-28T09:02:22.991Z,24.90
2018-07-28T09:04:51.470Z,25.20
2018-07-28T09:07:19.979Z,25.20
2018-07-28T09:09:48.464Z,25.40
2018-07-28T09:12:17.066Z,25.70
2018-07-28T09:14:45.897Z,25.80
2018-07-28T09:17:14.439Z,25.90
2018-07-28T09:19:43.015Z,25.90
2018-07-28T09:22:11.750Z,25.70
2018-07-28T09:24:40.367Z,25.60
2018-07-28T09:27:08.862Z,25.50
2018-07-28T09:29:37.303Z,25.60
2018-07-28T09:32:06.042Z,25.70
2018-07-28T09:34:34.652Z,25.80
2018-07-28T09:37:03.240Z,26.00
2018-07-28T09:39:31.677Z,26.10
2018-07-28T09:42:00.146Z,26.30
2018-07-28T09:44:28.695Z,26.50
2018-07-28T09:46:57.377Z,26.60
2018-07-28T09:49:27.086Z,26.60
2018-07-28T09:51:55.724Z,26.70
2018-07-28T09:54:24.276Z,26.80
2018-07-28T09:56:52.855Z,26.80
2018-07-28T09:59:21.327Z,27.00
2018-07-28T10:01:49.975Z,27.30
2018-07-28T10:04:18.500Z,27.60
2018-07-28T10:06:47.325Z,27.80
2018-07-28T10:09:15.806Z,27.70
2018-07-28T10:11:44.255Z,28.00
2018-07-28T10:14:12.866Z,28.30
2018-07-28T10:16:41.318Z,28.70
2018-07-28T10:19:10.496Z,28.70
2018-07-28T10:21:38.936Z,28.70
2018-07-28T10:26:36.260Z,28.50
2018-07-28T10:29:05.047Z,28.10
2018-07-28T10:31:33.591Z,28.00
2018-07-28T10:34:02.359Z,28.10
2018-07-28T10:36:31.068Z,28.20
2018-07-28T10:39:00.359Z,28.00
2018-07-28T10:41:28.859Z,28.20
2018-07-28T10:43:57.395Z,28.30
2018-07-28T10:51:22.799Z,28.50
2018-07-28T10:53:51.242Z,28.70
2018-07-28T10:56:19.775Z,28.90
2018-07-28T10:58:48.378Z,29.20
2018-07-28T11:03:45.263Z,29.40
2018-07-28T11:06:13.731Z,29.40
2018-07-28T11:08:42.186Z,29.40
2018-07-28T11:11:10.639Z,29.70
2018-07-28T11:13:39.160Z,30.30
2018-07-28T11:16:09.237Z,30.50
2018-07-28T11:18:37.689Z,30.30
2018-07-28T11:21:06.323Z,30.00
2018-07-28T11:23:46.170Z,29.70
2018-07-28T11:26:16.335Z,29.70
2018-07-28T11:28:44.838Z,29.40
2018-07-28T11:32:28.369Z,29.30
2018-07-28T11:35:07.923Z,29.40
2018-07-28T11:37:47.929Z,29.60
2018-07-28T11:40:27.770Z,29.60
2018-07-28T11:43:07.522Z,30.00
2018-07-28T11:45:36.830Z,30.00
2018-07-28T11:48:05.663Z,30.10
2018-07-28T11:50:34.179Z,30.40
2018-07-28T11:53:02.645Z,30.40
2018-07-28T11:55:31.089Z,30.00
2018-07-28T11:57:59.663Z,29.80
2018-07-28T12:00:28.323Z,29.50
2018-07-28T12:02:56.896Z,29.40
2018-07-28T12:05:25.533Z,29.40
2018-07-28T12:07:54.160Z,29.40
2018-07-28T12:10:22.674Z,29.60
2018-07-28T12:12:51.271Z,29.90
2018-07-28T12:15:19.750Z,30.10
2018-07-28T12:17:48.203Z,29.90
2018-07-28T12:20:16.663Z,29.90
2018-07-28T12:22:45.180Z,29.80
2018-07-28T12:25:13.599Z,29.90
2018-07-28T12:27:42.027Z,29.80
2018-07-28T12:30:11.539Z,29.90
2018-07-28T12:32:40.420Z,30.00
2018-07-28T12:35:09.199Z,30.00
2018-07-28T12:37:37.798Z,29.50
2018-07-28T12:40:06.456Z,29.40
2018-07-28T12:42:35.193Z,29.70
2018-07-28T12:45:03.949Z,29.80
2018-07-28T12:47:32.516Z,30.20
2018-07-28T12:50:01.024Z,30.20
2018-07-28T12:52:29.679Z,30.30
2018-07-28T12:54:59.375Z,30.10
2018-07-28T12:57:28.007Z,30.10
2018-07-28T12:59:56.606Z,30.30
2018-07-28T13:02:25.096Z,30.40
2018-07-28T13:04:53.557Z,30.20
2018-07-28T13:07:22.105Z,30.20
2018-07-28T13:09:50.760Z,30.30
2018-07-28T13:12:19.299Z,30.10
2018-07-28T13:14:47.820Z,29.80
2018-07-28T13:17:16.299Z,29.90
2018-07-28T13:19:44.783Z,30.10
2018-07-28T13:22:13.381Z,30.20
2018-07-28T13:24:42.115Z,29.80
2018-07-28T13:27:10.591Z,29.70
2018-07-28T13:32:07.623Z,29.70
2018-07-28T13:34:36.271Z,29.80
2018-07-28T13:37:05.195Z,29.70
2018-07-28T13:39:33.765Z,29.90
2018-07-28T13:42:02.419Z,30.00
2018-07-28T13:44:31.212Z,29.70
2018-07-28T13:46:59.859Z,29.40
2018-07-28T13:49:28.416Z,29.30
2018-07-28T13:51:57.015Z,29.50
2018-07-28T13:54:25.661Z,29.50
2018-07-28T13:56:54.512Z,29.40
2018-07-28T13:59:23.046Z,29.20
2018-07-28T14:01:51.810Z,28.50
2018-07-28T14:04:20.258Z,28.60
2018-07-28T14:06:48.719Z,28.30
2018-07-28T14:09:17.143Z,28.30
2018-07-28T14:11:45.554Z,28.30
2018-07-28T14:14:14.344Z,28.20
2018-07-28T14:16:42.949Z,27.90
2018-07-28T14:19:11.582Z,27.80
2018-07-28T14:21:40.076Z,27.40
2018-07-28T14:24:08.573Z,27.50
2018-07-28T14:26:37.012Z,27.40
2018-07-28T14:29:05.487Z,27.10
2018-07-28T14:31:34.180Z,26.80
2018-07-28T14:34:02.668Z,26.90
2018-07-28T14:36:31.129Z,27.00
2018-07-28T14:39:00.317Z,27.10
2018-07-28T14:41:28.909Z,27.00
2018-07-28T14:43:57.405Z,27.20
2018-07-28T14:46:25.859Z,27.00
2018-07-28T14:48:54.475Z,27.20
2018-07-28T14:51:23.027Z,27.20
2018-07-28T14:53:51.537Z,27.20
2018-07-28T14:56:20.047Z,27.30
2018-07-28T14:58:48.837Z,27.60
2018-07-28T15:01:17.483Z,27.70
2018-07-28T15:03:46.399Z,27.60
2018-07-28T15:06:14.979Z,27.50
2018-07-28T15:08:43.418Z,27.10
2018-07-28T15:11:12.031Z,27.20
2018-07-28T15:13:40.590Z,26.70
2018-07-28T15:16:09.034Z,26.30
2018-07-28T15:18:37.524Z,26.30
2018-07-28T15:21:05.947Z,26.20
2018-07-28T15:23:34.675Z,26.10
2018-07-28T15:26:03.184Z,26.30
2018-07-28T15:28:31.643Z,26.30
2018-07-28T15:31:00.063Z,26.10
2018-07-28T15:33:28.720Z,26.10
2018-07-28T15:35:57.335Z,25.70
2018-07-28T15:38:25.887Z,25.60
2018-07-28T15:40:54.387Z,25.60
2018-07-28T15:43:22.813Z,25.50
2018-07-28T15:45:51.374Z,25.40
2018-07-28T15:48:19.926Z,25.40
2018-07-28T15:50:49.036Z,25.40
2018-07-28T15:53:17.580Z,25.30
2018-07-28T15:55:46.067Z,25.30
2018-07-28T15:58:14.583Z,25.30
2018-07-28T16:00:43.059Z,25.40
2018-07-28T16:03:11.776Z,25.50
2018-07-28T16:05:40.305Z,25.50
2018-07-28T16:08:08.739Z,25.50
2018-07-28T16:10:37.311Z,25.40
2018-07-28T16:13:05.947Z,25.40
2018-07-28T16:15:34.560Z,25.40
2018-07-28T16:18:03.095Z,25.40
2018-07-28T16:20:31.555Z,25.20
2018-07-28T16:23:00.184Z,25.10
2018-07-28T16:25:28.646Z,25.10
2018-07-28T16:27:57.576Z,25.20
2018-07-28T16:30:26.134Z,25.10
2018-07-28T16:32:55.878Z,25.10
2018-07-28T16:35:24.364Z,25.10
2018-07-28T16:37:52.875Z,25.10
2018-07-28T16:40:21.386Z,25.10
2018-07-28T16:42:50.048Z,25.00
2018-07-28T16:45:18.615Z,24.90
2018-07-28T16:47:47.078Z,24.90
2018-07-28T16:50:15.612Z,24.90
2018-07-28T16:52:44.291Z,24.80
2018-07-28T16:55:12.863Z,24.70
2018-07-28T16:57:41.435Z,24.70
2018-07-28T17:00:10.217Z,24.70
2018-07-28T17:02:39.427Z,24.70
2018-07-28T17:05:08.150Z,24.80
2018-07-28T17:07:37.237Z,24.70
2018-07-28T17:10:06.156Z,24.80
2018-07-28T17:12:34.656Z,24.80
2018-07-28T17:15:03.194Z,24.80
2018-07-28T17:17:31.846Z,24.70
2018-07-28T17:20:00.329Z,24.70
2018-07-28T17:22:29.066Z,24.70
2018-07-28T17:24:57.728Z,24.60
2018-07-28T17:27:26.303Z,24.50
2018-07-28T17:29:54.890Z,24.40
2018-07-28T17:34:51.505Z,24.40
2018-07-28T17:37:20.110Z,24.40
2018-07-28T17:39:48.635Z,24.60
2018-07-28T17:42:17.212Z,24.70
2018-07-28T17:44:45.763Z,24.70
2018-07-28T17:47:14.456Z,24.80
2018-07-28T17:49:43.120Z,24.90
2018-07-28T17:52:11.716Z,24.80
2018-07-28T17:54:40.392Z,24.80
2018-07-28T17:57:08.944Z,24.80
2018-07-28T17:59:37.612Z,24.80
2018-07-28T18:02:06.241Z,24.80
2018-07-28T18:04:34.831Z,24.80
2018-07-28T18:07:03.693Z,24.70
2018-07-28T18:09:32.384Z,24.60
2018-07-28T18:12:01.288Z,24.60
2018-07-28T18:14:30.178Z,24.50
2018-07-28T18:16:59.080Z,24.40
2018-07-28T18:19:27.612Z,24.30
2018-07-28T18:21:56.253Z,24.30
2018-07-28T18:24:24.919Z,24.20
2018-07-28T18:26:53.611Z,24.10
2018-07-28T18:29:22.276Z,24.00
2018-07-28T18:31:51.149Z,23.90
2018-07-28T18:34:19.594Z,23.80
2018-07-28T18:36:48.227Z,23.80
2018-07-28T18:39:17.128Z,23.80
2018-07-28T18:41:45.785Z,23.70
2018-07-28T18:44:14.180Z,23.70
2018-07-28T18:46:42.732Z,23.60
2018-07-28T18:49:11.363Z,23.60
2018-07-28T18:51:40.325Z,23.60
2018-07-28T18:54:08.813Z,23.60
2018-07-28T18:56:37.526Z,23.50
2018-07-28T18:59:06.401Z,23.50
2018-07-28T19:01:35.001Z,23.40
2018-07-28T19:04:03.753Z,23.30
2018-07-28T19:06:32.572Z,23.30
2018-07-28T19:09:06.317Z,23.20
2018-07-28T19:11:34.817Z,23.00
2018-07-28T19:14:08.748Z,22.70
2018-07-28T19:16:37.328Z,22.50
2018-07-28T19:19:11.391Z,22.20
2018-07-28T19:21:39.969Z,22.00
2018-07-28T19:24:08.532Z,21.80
2018-07-28T19:26:37.043Z,21.60
2018-07-28T19:29:11.185Z,21.50
2018-07-28T19:31:39.696Z,21.30
2018-07-28T19:34:08.242Z,21.10
2018-07-28T19:36:42.080Z,20.90
2018-07-28T19:39:10.970Z,20.70
2018-07-28T19:41:44.888Z,20.60
2018-07-28T19:44:13.657Z,20.60
2018-07-28T19:46:42.189Z,20.40
2018-07-28T19:49:10.857Z,20.40
2018-07-28T19:51:41.899Z,20.30
2018-07-28T19:54:10.524Z,20.10
2018-07-28T19:56:38.963Z,20.00
2018-07-28T19:59:07.477Z,20.00
2018-07-28T20:01:36.040Z,19.80
2018-07-28T20:04:04.592Z,19.60
2018-07-28T20:06:33.221Z,19.60
2018-07-28T20:09:01.702Z,19.60
2018-07-28T20:11:30.334Z,19.50
2018-07-28T20:13:58.903Z,19.50
2018-07-28T20:16:27.524Z,19.40
2018-07-28T20:18:56.116Z,19.30
2018-07-28T20:21:24.707Z,19.30
2018-07-28T20:23:53.381Z,19.20
2018-07-28T20:26:21.895Z,19.30
2018-07-28T20:28:50.388Z,19.30
2018-07-28T20:31:18.865Z,19.30
2018-07-28T20:33:47.552Z,19.10
2018-07-28T20:36:16.456Z,19.00
2018-07-28T20:38:45.024Z,18.90
2018-07-28T20:43:44.037Z,18.90
2018-07-28T20:46:13.024Z,18.80
2018-07-28T20:48:41.839Z,18.60
2018-07-28T20:51:10.734Z,18.60
2018-07-28T20:53:39.260Z,18.60
2018-07-28T20:56:08.674Z,18.40
2018-07-28T20:58:38.487Z,18.30
2018-07-28T21:01:08.411Z,18.10
2018-07-28T21:03:37.824Z,18.10
2018-07-28T21:06:06.526Z,18.10
2018-07-28T21:08:35.015Z,18.00
2018-07-28T21:11:03.569Z,18.00
2018-07-28T21:13:32.139Z,18.00
2018-07-28T21:16:00.675Z,17.90
2018-07-28T21:18:29.700Z,17.80
2018-07-28T21:20:58.388Z,17.70
2018-07-28T21:23:27.307Z,17.60
2018-07-28T21:25:56.276Z,17.50
2018-07-28T21:28:25.015Z,17.50
2018-07-28T21:30:53.515Z,17.40
2018-07-28T21:33:23.500Z,17.40
2018-07-28T21:35:52.684Z,17.30
2018-07-28T21:38:21.193Z,17.20
2018-07-28T21:40:49.611Z,17.20
2018-07-28T21:43:19.152Z,17.10
2018-07-28T21:45:47.630Z,17.10
2018-07-28T21:48:16.751Z,17.10
2018-07-28T21:50:46.709Z,17.00
2018-07-28T21:53:16.461Z,17.00
2018-07-28T21:55:44.978Z,16.90
2018-07-28T21:58:13.572Z,16.90
2018-07-28T22:00:47.408Z,16.80
2018-07-28T22:03:15.915Z,16.80
2018-07-28T22:05:44.423Z,16.70
2018-07-28T22:08:13.104Z,16.70
2018-07-28T22:10:41.678Z,16.80
2018-07-28T22:13:10.976Z,16.70
2018-07-28T22:15:40.364Z,16.60
2018-07-28T22:18:08.895Z,16.50
2018-07-28T22:20:37.386Z,16.50
2018-07-28T22:23:05.935Z,16.50
2018-07-28T22:25:34.615Z,16.40
2018-07-28T22:28:03.127Z,16.40
2018-07-28T22:30:31.734Z,16.30
2018-07-28T22:33:00.259Z,16.30
2018-07-28T22:35:32.006Z,16.30
2018-07-28T22:38:00.696Z,16.10
2018-07-28T22:40:29.212Z,16.00
2018-07-28T22:42:57.687Z,16.00
2018-07-28T22:45:26.254Z,16.00
2018-07-28T22:47:54.726Z,16.00
2018-07-28T22:50:23.468Z,15.90
2018-07-28T22:52:52.215Z,16.00
2018-07-28T22:55:21.095Z,16.00
2018-07-28T22:57:49.608Z,15.90
2018-07-28T23:00:18.994Z,15.80
2018-07-28T23:02:47.437Z,15.70
2018-07-28T23:05:15.915Z,15.70
2018-07-28T23:07:44.655Z,15.70
2018-07-28T23:10:13.387Z,15.60
2018-07-28T23:12:41.837Z,15.60
2018-07-28T23:15:10.465Z,15.50
2018-07-28T23:17:38.989Z,15.50
2018-07-28T23:20:07.901Z,15.50
2018-07-28T23:22:36.483Z,15.50
2018-07-28T23:25:06.836Z,15.40
2018-07-28T23:27:35.312Z,15.40
2018-07-28T23:30:06.972Z,15.30
2018-07-28T23:32:36.181Z,15.30
2018-07-28T23:37:33.144Z,15.30
2018-07-28T23:40:02.216Z,15.30
2018-07-28T23:42:30.752Z,15.30
2018-07-28T23:44:59.369Z,15.30
2018-07-28T23:47:28.076Z,15.20
2018-07-28T23:49:58.132Z,15.20
2018-07-28T23:52:26.591Z,15.10
2018-07-28T23:54:55.027Z,15.10
2018-07-28T23:57:23.547Z,15.10
2018-07-28T23:59:51.961Z,15.10
